sensor_id;sensor_type;location;lat;lon;timestamp;temperature;humidity
35804;DHT22;21924;51.934;7.414;2023-04-03T00:01:30;3.90;99.90
35804;DHT22;21924;51.934;7.414;2023-04-03T00:04:14;3.90;99.90
35804;DHT22;21924;51.934;7.414;2023-04-03T00:06:59;3.80;99.90
35804;DHT22;21924;51.934;7.414;2023-04-03T00:09:44;3.70;99.90
35804;DHT22;21924;51.934;7.414;2023-04-03T00:12:28;3.70;99.90
35804;DHT22;21924;51.934;7.414;2023-04-03T00:15:12;3.70;99.90
35804;DHT22;21924;51.934;7.414;2023-04-03T00:17:57;3.70;99.90
35804;DHT22;21924;51.934;7.414;2023-04-03T00:20:41;3.60;99.90
35804;DHT22;21924;51.934;7.414;2023-04-03T00:23:25;3.70;99.90
35804;DHT22;21924;51.934;7.414;2023-04-03T00:26:10;3.60;99.90
35804;DHT22;21924;51.934;7.414;2023-04-03T00:28:54;3.60;99.90
35804;DHT22;21924;51.934;7.414;2023-04-03T00:31:40;3.60;99.90
35804;DHT22;21924;51.934;7.414;2023-04-03T00:34:24;3.50;99.90
35804;DHT22;21924;51.934;7.414;2023-04-03T00:37:08;3.50;99.90
35804;DHT22;21924;51.934;7.414;2023-04-03T00:39:52;3.50;99.90
35804;DHT22;21924;51.934;7.414;2023-04-03T00:42:37;3.50;99.90
35804;DHT22;21924;51.934;7.414;2023-04-03T00:45:37;3.50;99.90
35804;DHT22;21924;51.934;7.414;2023-04-03T00:48:33;3.40;99.90
35804;DHT22;21924;51.934;7.414;2023-04-03T00:51:24;3.40;99.90
35804;DHT22;21924;51.934;7.414;2023-04-03T00:54:08;3.40;99.90
35804;DHT22;21924;51.934;7.414;2023-04-03T00:56:54;3.40;99.90
35804;DHT22;21924;51.934;7.414;2023-04-03T00:59:43;3.30;99.90
35804;DHT22;21924;51.934;7.414;2023-04-03T01:02:29;3.30;99.90
35804;DHT22;21924;51.934;7.414;2023-04-03T01:05:15;3.20;99.90
35804;DHT22;21924;51.934;7.414;2023-04-03T01:08:00;3.20;99.90
35804;DHT22;21924;51.934;7.414;2023-04-03T01:10:44;3.20;99.90
35804;DHT22;21924;51.934;7.414;2023-04-03T01:13:31;3.10;99.90
35804;DHT22;21924;51.934;7.414;2023-04-03T01:16:15;3.10;99.90
35804;DHT22;21924;51.934;7.414;2023-04-03T01:19:00;3.10;99.90
35804;DHT22;21924;51.934;7.414;2023-04-03T01:24:48;3.00;99.90
35804;DHT22;21924;51.934;7.414;2023-04-03T01:27:33;2.90;99.90
35804;DHT22;21924;51.934;7.414;2023-04-03T01:30:18;2.90;99.90
35804;DHT22;21924;51.934;7.414;2023-04-03T01:33:03;2.90;99.90
35804;DHT22;21924;51.934;7.414;2023-04-03T01:35:48;2.80;99.90
35804;DHT22;21924;51.934;7.414;2023-04-03T01:38:32;2.80;99.90
35804;DHT22;21924;51.934;7.414;2023-04-03T01:41:16;2.70;99.90
35804;DHT22;21924;51.934;7.414;2023-04-03T01:44:00;2.70;99.90
35804;DHT22;21924;51.934;7.414;2023-04-03T01:46:45;2.70;99.90
35804;DHT22;21924;51.934;7.414;2023-04-03T01:49:29;2.60;99.90
35804;DHT22;21924;51.934;7.414;2023-04-03T01:52:13;2.60;99.90
35804;DHT22;21924;51.934;7.414;2023-04-03T01:54:57;2.60;99.90
35804;DHT22;21924;51.934;7.414;2023-04-03T01:57:42;2.60;99.90
35804;DHT22;21924;51.934;7.414;2023-04-03T02:00:26;2.60;99.90
35804;DHT22;21924;51.934;7.414;2023-04-03T02:03:10;2.50;99.90
35804;DHT22;21924;51.934;7.414;2023-04-03T02:05:54;2.50;99.90
35804;DHT22;21924;51.934;7.414;2023-04-03T02:08:39;2.40;99.90
35804;DHT22;21924;51.934;7.414;2023-04-03T02:11:23;2.40;99.90
35804;DHT22;21924;51.934;7.414;2023-04-03T02:14:07;2.40;99.90
35804;DHT22;21924;51.934;7.414;2023-04-03T02:16:52;2.40;99.90
35804;DHT22;21924;51.934;7.414;2023-04-03T02:19:36;2.30;99.90
35804;DHT22;21924;51.934;7.414;2023-04-03T02:22:20;2.30;99.90
35804;DHT22;21924;51.934;7.414;2023-04-03T02:25:05;2.20;99.90
35804;DHT22;21924;51.934;7.414;2023-04-03T02:27:49;2.10;99.90
35804;DHT22;21924;51.934;7.414;2023-04-03T02:30:33;2.10;99.90
35804;DHT22;21924;51.934;7.414;2023-04-03T02:33:18;2.10;99.90
35804;DHT22;21924;51.934;7.414;2023-04-03T02:36:04;2.10;99.90
35804;DHT22;21924;51.934;7.414;2023-04-03T02:38:49;2.10;99.90
35804;DHT22;21924;51.934;7.414;2023-04-03T02:41:33;2.00;99.90
35804;DHT22;21924;51.934;7.414;2023-04-03T02:44:19;2.00;99.90
35804;DHT22;21924;51.934;7.414;2023-04-03T02:47:03;2.00;99.90
35804;DHT22;21924;51.934;7.414;2023-04-03T02:49:48;1.90;99.90
35804;DHT22;21924;51.934;7.414;2023-04-03T02:52:32;1.90;99.90
35804;DHT22;21924;51.934;7.414;2023-04-03T02:55:16;1.80;99.90
35804;DHT22;21924;51.934;7.414;2023-04-03T02:58:01;1.80;99.90
35804;DHT22;21924;51.934;7.414;2023-04-03T03:00:45;1.70;99.90
35804;DHT22;21924;51.934;7.414;2023-04-03T03:03:29;1.60;99.90
35804;DHT22;21924;51.934;7.414;2023-04-03T03:06:15;1.60;99.90
35804;DHT22;21924;51.934;7.414;2023-04-03T03:09:00;1.50;99.90
35804;DHT22;21924;51.934;7.414;2023-04-03T03:11:45;1.60;99.90
35804;DHT22;21924;51.934;7.414;2023-04-03T03:14:29;1.50;99.90
35804;DHT22;21924;51.934;7.414;2023-04-03T03:17:13;1.50;99.90
35804;DHT22;21924;51.934;7.414;2023-04-03T03:19:58;1.50;99.90
35804;DHT22;21924;51.934;7.414;2023-04-03T03:22:42;1.50;99.90
35804;DHT22;21924;51.934;7.414;2023-04-03T03:25:26;1.40;99.90
35804;DHT22;21924;51.934;7.414;2023-04-03T03:28:10;1.40;99.90
35804;DHT22;21924;51.934;7.414;2023-04-03T03:30:56;1.30;99.90
35804;DHT22;21924;51.934;7.414;2023-04-03T03:33:40;1.30;99.90
35804;DHT22;21924;51.934;7.414;2023-04-03T03:36:25;1.30;99.90
35804;DHT22;21924;51.934;7.414;2023-04-03T03:39:09;1.30;99.90
35804;DHT22;21924;51.934;7.414;2023-04-03T03:41:54;1.20;99.90
35804;DHT22;21924;51.934;7.414;2023-04-03T03:44:38;1.20;99.90
35804;DHT22;21924;51.934;7.414;2023-04-03T03:47:22;1.10;99.90
35804;DHT22;21924;51.934;7.414;2023-04-03T03:50:08;1.10;99.90
35804;DHT22;21924;51.934;7.414;2023-04-03T03:52:52;1.10;99.90
35804;DHT22;21924;51.934;7.414;2023-04-03T03:55:36;1.10;99.90
35804;DHT22;21924;51.934;7.414;2023-04-03T03:58:21;1.00;99.90
35804;DHT22;21924;51.934;7.414;2023-04-03T04:01:06;1.00;99.90
35804;DHT22;21924;51.934;7.414;2023-04-03T04:03:51;0.90;99.90
35804;DHT22;21924;51.934;7.414;2023-04-03T04:06:35;0.90;99.90
35804;DHT22;21924;51.934;7.414;2023-04-03T04:09:19;0.90;99.90
35804;DHT22;21924;51.934;7.414;2023-04-03T04:12:03;0.90;99.90
35804;DHT22;21924;51.934;7.414;2023-04-03T04:14:47;0.80;99.90
35804;DHT22;21924;51.934;7.414;2023-04-03T04:17:31;0.80;99.90
35804;DHT22;21924;51.934;7.414;2023-04-03T04:20:15;0.80;99.90
35804;DHT22;21924;51.934;7.414;2023-04-03T04:23:00;0.80;99.90
35804;DHT22;21924;51.934;7.414;2023-04-03T04:25:48;0.70;99.90
35804;DHT22;21924;51.934;7.414;2023-04-03T04:28:32;0.80;99.90
35804;DHT22;21924;51.934;7.414;2023-04-03T04:31:17;0.70;99.90
35804;DHT22;21924;51.934;7.414;2023-04-03T04:34:01;0.70;99.90
35804;DHT22;21924;51.934;7.414;2023-04-03T04:36:46;0.70;99.90
35804;DHT22;21924;51.934;7.414;2023-04-03T04:39:30;0.60;99.90
35804;DHT22;21924;51.934;7.414;2023-04-03T04:42:14;0.60;99.90
35804;DHT22;21924;51.934;7.414;2023-04-03T04:44:59;0.60;99.90
35804;DHT22;21924;51.934;7.414;2023-04-03T04:47:43;0.60;99.90
35804;DHT22;21924;51.934;7.414;2023-04-03T04:50:27;0.60;99.90
35804;DHT22;21924;51.934;7.414;2023-04-03T04:53:11;0.60;99.90
35804;DHT22;21924;51.934;7.414;2023-04-03T04:55:56;0.50;99.90
35804;DHT22;21924;51.934;7.414;2023-04-03T04:58:40;0.50;99.90
35804;DHT22;21924;51.934;7.414;2023-04-03T05:01:24;0.60;99.90
35804;DHT22;21924;51.934;7.414;2023-04-03T05:04:09;0.50;99.90
35804;DHT22;21924;51.934;7.414;2023-04-03T05:06:54;0.50;99.90
35804;DHT22;21924;51.934;7.414;2023-04-03T05:09:38;0.40;99.90
35804;DHT22;21924;51.934;7.414;2023-04-03T05:12:25;0.50;99.90
35804;DHT22;21924;51.934;7.414;2023-04-03T05:15:09;0.40;99.90
35804;DHT22;21924;51.934;7.414;2023-04-03T05:17:54;0.40;99.90
35804;DHT22;21924;51.934;7.414;2023-04-03T05:20:38;0.50;99.90
35804;DHT22;21924;51.934;7.414;2023-04-03T05:23:22;0.50;99.90
35804;DHT22;21924;51.934;7.414;2023-04-03T05:26:07;0.50;99.90
35804;DHT22;21924;51.934;7.414;2023-04-03T05:28:51;0.40;99.90
35804;DHT22;21924;51.934;7.414;2023-04-03T05:31:35;0.50;99.90
35804;DHT22;21924;51.934;7.414;2023-04-03T05:34:19;0.40;99.90
35804;DHT22;21924;51.934;7.414;2023-04-03T05:37:04;0.50;99.90
35804;DHT22;21924;51.934;7.414;2023-04-03T05:39:49;0.50;99.90
35804;DHT22;21924;51.934;7.414;2023-04-03T05:42:33;0.50;99.90
35804;DHT22;21924;51.934;7.414;2023-04-03T05:45:17;0.60;99.90
35804;DHT22;21924;51.934;7.414;2023-04-03T05:48:01;0.60;99.90
35804;DHT22;21924;51.934;7.414;2023-04-03T05:50:46;0.70;99.90
35804;DHT22;21924;51.934;7.414;2023-04-03T05:53:34;0.70;99.90
35804;DHT22;21924;51.934;7.414;2023-04-03T05:56:19;0.80;99.90
35804;DHT22;21924;51.934;7.414;2023-04-03T05:59:04;0.80;99.90
35804;DHT22;21924;51.934;7.414;2023-04-03T06:01:48;0.80;99.90
35804;DHT22;21924;51.934;7.414;2023-04-03T06:04:33;0.90;99.90
35804;DHT22;21924;51.934;7.414;2023-04-03T06:07:22;0.90;99.90
35804;DHT22;21924;51.934;7.414;2023-04-03T06:10:08;0.90;99.90
35804;DHT22;21924;51.934;7.414;2023-04-03T06:12:52;0.90;99.90
35804;DHT22;21924;51.934;7.414;2023-04-03T06:15:37;1.00;99.90
35804;DHT22;21924;51.934;7.414;2023-04-03T06:18:23;1.00;99.90
35804;DHT22;21924;51.934;7.414;2023-04-03T06:21:07;1.10;99.90
35804;DHT22;21924;51.934;7.414;2023-04-03T06:23:51;1.10;99.90
35804;DHT22;21924;51.934;7.414;2023-04-03T06:26:36;1.20;99.90
35804;DHT22;21924;51.934;7.414;2023-04-03T06:29:20;1.30;99.90
35804;DHT22;21924;51.934;7.414;2023-04-03T06:32:05;1.40;99.90
35804;DHT22;21924;51.934;7.414;2023-04-03T06:34:50;1.40;99.90
35804;DHT22;21924;51.934;7.414;2023-04-03T06:37:35;1.40;99.90
35804;DHT22;21924;51.934;7.414;2023-04-03T06:40:22;1.50;99.90
35804;DHT22;21924;51.934;7.414;2023-04-03T06:43:06;1.60;99.90
35804;DHT22;21924;51.934;7.414;2023-04-03T06:45:51;1.70;99.90
35804;DHT22;21924;51.934;7.414;2023-04-03T06:48:35;1.70;99.90
35804;DHT22;21924;51.934;7.414;2023-04-03T06:51:22;1.90;99.90
35804;DHT22;21924;51.934;7.414;2023-04-03T06:54:07;1.90;99.90
35804;DHT22;21924;51.934;7.414;2023-04-03T06:56:52;1.90;99.90
35804;DHT22;21924;51.934;7.414;2023-04-03T06:59:36;2.00;99.90
35804;DHT22;21924;51.934;7.414;2023-04-03T07:02:21;2.20;99.90
35804;DHT22;21924;51.934;7.414;2023-04-03T07:05:06;2.20;99.90
35804;DHT22;21924;51.934;7.414;2023-04-03T07:07:51;2.30;99.90
35804;DHT22;21924;51.934;7.414;2023-04-03T07:10:35;2.40;99.90
35804;DHT22;21924;51.934;7.414;2023-04-03T07:13:21;2.50;99.90
35804;DHT22;21924;51.934;7.414;2023-04-03T07:16:06;2.60;99.90
35804;DHT22;21924;51.934;7.414;2023-04-03T07:18:51;2.80;99.90
35804;DHT22;21924;51.934;7.414;2023-04-03T07:21:35;2.80;99.90
35804;DHT22;21924;51.934;7.414;2023-04-03T07:24:19;2.90;99.90
35804;DHT22;21924;51.934;7.414;2023-04-03T07:27:04;2.90;99.90
35804;DHT22;21924;51.934;7.414;2023-04-03T07:29:48;3.10;99.90
35804;DHT22;21924;51.934;7.414;2023-04-03T07:32:33;3.20;99.90
35804;DHT22;21924;51.934;7.414;2023-04-03T07:35:17;3.40;99.90
35804;DHT22;21924;51.934;7.414;2023-04-03T07:38:01;3.40;99.90
35804;DHT22;21924;51.934;7.414;2023-04-03T07:40:47;3.50;99.90
35804;DHT22;21924;51.934;7.414;2023-04-03T07:43:32;3.60;99.90
35804;DHT22;21924;51.934;7.414;2023-04-03T07:46:16;3.60;99.90
35804;DHT22;21924;51.934;7.414;2023-04-03T07:49:01;3.60;99.90
35804;DHT22;21924;51.934;7.414;2023-04-03T07:51:46;3.70;99.90
35804;DHT22;21924;51.934;7.414;2023-04-03T07:54:30;4.00;99.90
35804;DHT22;21924;51.934;7.414;2023-04-03T07:57:15;4.10;99.90
35804;DHT22;21924;51.934;7.414;2023-04-03T08:00:00;4.00;99.90
35804;DHT22;21924;51.934;7.414;2023-04-03T08:02:44;3.90;99.90
35804;DHT22;21924;51.934;7.414;2023-04-03T08:05:38;3.90;99.90
35804;DHT22;21924;51.934;7.414;2023-04-03T08:08:22;3.90;99.90
35804;DHT22;21924;51.934;7.414;2023-04-03T08:11:07;4.00;99.90
35804;DHT22;21924;51.934;7.414;2023-04-03T08:13:52;4.10;99.90
35804;DHT22;21924;51.934;7.414;2023-04-03T08:16:36;4.10;99.90
35804;DHT22;21924;51.934;7.414;2023-04-03T08:19:20;4.30;99.90
35804;DHT22;21924;51.934;7.414;2023-04-03T08:22:05;4.30;99.90
35804;DHT22;21924;51.934;7.414;2023-04-03T08:24:49;4.40;99.90
35804;DHT22;21924;51.934;7.414;2023-04-03T08:27:33;4.40;99.90
35804;DHT22;21924;51.934;7.414;2023-04-03T08:30:17;4.50;99.90
35804;DHT22;21924;51.934;7.414;2023-04-03T08:33:02;4.50;99.90
35804;DHT22;21924;51.934;7.414;2023-04-03T08:35:46;4.60;99.90
35804;DHT22;21924;51.934;7.414;2023-04-03T08:38:30;4.60;99.90
35804;DHT22;21924;51.934;7.414;2023-04-03T08:41:31;4.70;99.90
35804;DHT22;21924;51.934;7.414;2023-04-03T08:47:23;4.80;99.90
35804;DHT22;21924;51.934;7.414;2023-04-03T08:50:17;4.90;99.90
35804;DHT22;21924;51.934;7.414;2023-04-03T08:53:03;4.80;99.90
35804;DHT22;21924;51.934;7.414;2023-04-03T08:55:51;4.90;99.90
35804;DHT22;21924;51.934;7.414;2023-04-03T08:58:48;5.00;99.90
35804;DHT22;21924;51.934;7.414;2023-04-03T09:01:40;5.10;99.90
35804;DHT22;21924;51.934;7.414;2023-04-03T09:04:26;5.30;99.90
35804;DHT22;21924;51.934;7.414;2023-04-03T09:07:18;5.30;99.90
35804;DHT22;21924;51.934;7.414;2023-04-03T09:10:03;5.20;99.90
35804;DHT22;21924;51.934;7.414;2023-04-03T09:12:59;5.20;99.90
35804;DHT22;21924;51.934;7.414;2023-04-03T09:15:45;5.30;99.90
35804;DHT22;21924;51.934;7.414;2023-04-03T09:18:33;5.40;99.90
35804;DHT22;21924;51.934;7.414;2023-04-03T09:21:25;5.60;99.90
35804;DHT22;21924;51.934;7.414;2023-04-03T09:24:14;5.70;99.90
35804;DHT22;21924;51.934;7.414;2023-04-03T09:27:04;5.70;99.90
35804;DHT22;21924;51.934;7.414;2023-04-03T09:29:53;5.70;99.90
35804;DHT22;21924;51.934;7.414;2023-04-03T09:32:38;5.70;99.90
35804;DHT22;21924;51.934;7.414;2023-04-03T09:35:28;5.80;99.90
35804;DHT22;21924;51.934;7.414;2023-04-03T09:38:15;6.00;99.90
35804;DHT22;21924;51.934;7.414;2023-04-03T09:43:54;6.20;99.90
35804;DHT22;21924;51.934;7.414;2023-04-03T09:46:38;6.00;99.90
35804;DHT22;21924;51.934;7.414;2023-04-03T09:49:23;6.10;99.90
35804;DHT22;21924;51.934;7.414;2023-04-03T09:52:24;6.20;99.90
35804;DHT22;21924;51.934;7.414;2023-04-03T09:55:15;6.30;99.90
35804;DHT22;21924;51.934;7.414;2023-04-03T09:58:02;6.40;99.90
35804;DHT22;21924;51.934;7.414;2023-04-03T10:00:57;6.40;99.90
35804;DHT22;21924;51.934;7.414;2023-04-03T10:03:42;6.50;99.90
35804;DHT22;21924;51.934;7.414;2023-04-03T10:06:32;6.50;99.90
35804;DHT22;21924;51.934;7.414;2023-04-03T10:12:12;6.40;99.90
35804;DHT22;21924;51.934;7.414;2023-04-03T10:15:01;6.40;99.90
35804;DHT22;21924;51.934;7.414;2023-04-03T10:18:02;6.30;99.90
35804;DHT22;21924;51.934;7.414;2023-04-03T10:20:49;6.60;99.90
35804;DHT22;21924;51.934;7.414;2023-04-03T10:23:44;6.80;99.90
35804;DHT22;21924;51.934;7.414;2023-04-03T10:26:45;6.70;99.90
35804;DHT22;21924;51.934;7.414;2023-04-03T10:29:36;6.80;99.90
35804;DHT22;21924;51.934;7.414;2023-04-03T10:32:43;6.90;99.90
35804;DHT22;21924;51.934;7.414;2023-04-03T10:35:53;7.30;99.90
35804;DHT22;21924;51.934;7.414;2023-04-03T10:38:50;7.20;99.90
35804;DHT22;21924;51.934;7.414;2023-04-03T10:44:56;7.60;99.90
35804;DHT22;21924;51.934;7.414;2023-04-03T10:48:07;7.60;99.90
35804;DHT22;21924;51.934;7.414;2023-04-03T10:51:05;7.50;99.90
35804;DHT22;21924;51.934;7.414;2023-04-03T10:56:45;7.50;99.90
35804;DHT22;21924;51.934;7.414;2023-04-03T10:59:38;7.40;99.90
35804;DHT22;21924;51.934;7.414;2023-04-03T11:02:30;7.40;99.90
35804;DHT22;21924;51.934;7.414;2023-04-03T11:05:45;7.50;99.90
35804;DHT22;21924;51.934;7.414;2023-04-03T11:08:46;7.90;99.90
35804;DHT22;21924;51.934;7.414;2023-04-03T11:11:38;7.80;99.90
35804;DHT22;21924;51.934;7.414;2023-04-03T11:14:35;7.40;99.90
35804;DHT22;21924;51.934;7.414;2023-04-03T11:20:22;7.90;99.90
35804;DHT22;21924;51.934;7.414;2023-04-03T11:23:22;7.90;99.90
35804;DHT22;21924;51.934;7.414;2023-04-03T11:26:11;7.70;99.90
35804;DHT22;21924;51.934;7.414;2023-04-03T11:29:06;7.90;99.90
35804;DHT22;21924;51.934;7.414;2023-04-03T11:35:13;7.80;99.90
35804;DHT22;21924;51.934;7.414;2023-04-03T11:38:00;8.20;99.90
35804;DHT22;21924;51.934;7.414;2023-04-03T11:40:46;8.30;99.90
35804;DHT22;21924;51.934;7.414;2023-04-03T11:43:32;8.30;99.90
35804;DHT22;21924;51.934;7.414;2023-04-03T11:46:17;8.30;99.90
35804;DHT22;21924;51.934;7.414;2023-04-03T11:49:03;8.40;99.90
35804;DHT22;21924;51.934;7.414;2023-04-03T11:51:47;8.10;99.90
35804;DHT22;21924;51.934;7.414;2023-04-03T11:54:42;8.00;99.90
35804;DHT22;21924;51.934;7.414;2023-04-03T11:58:16;8.10;99.90
35804;DHT22;21924;51.934;7.414;2023-04-03T12:01:04;8.10;99.90
35804;DHT22;21924;51.934;7.414;2023-04-03T12:12:33;8.20;99.90
35804;DHT22;21924;51.934;7.414;2023-04-03T12:15:25;8.30;99.90
35804;DHT22;21924;51.934;7.414;2023-04-03T12:18:40;8.50;99.90
35804;DHT22;21924;51.934;7.414;2023-04-03T12:27:43;9.20;99.90
35804;DHT22;21924;51.934;7.414;2023-04-03T12:30:30;9.60;99.90
35804;DHT22;21924;51.934;7.414;2023-04-03T12:33:27;9.50;99.90
35804;DHT22;21924;51.934;7.414;2023-04-03T12:36:40;9.40;99.90
35804;DHT22;21924;51.934;7.414;2023-04-03T12:39:48;9.50;99.90
35804;DHT22;21924;51.934;7.414;2023-04-03T12:51:39;9.30;99.90
35804;DHT22;21924;51.934;7.414;2023-04-03T12:54:36;9.30;99.90
35804;DHT22;21924;51.934;7.414;2023-04-03T12:57:24;9.10;99.90
35804;DHT22;21924;51.934;7.414;2023-04-03T13:03:07;9.30;99.90
35804;DHT22;21924;51.934;7.414;2023-04-03T13:06:03;9.50;99.90
35804;DHT22;21924;51.934;7.414;2023-04-03T13:08:49;9.90;99.90
35804;DHT22;21924;51.934;7.414;2023-04-03T13:11:36;10.10;99.90
35804;DHT22;21924;51.934;7.414;2023-04-03T13:14:23;9.60;99.90
35804;DHT22;21924;51.934;7.414;2023-04-03T13:17:15;9.30;99.90
35804;DHT22;21924;51.934;7.414;2023-04-03T13:20:29;9.20;99.90
35804;DHT22;21924;51.934;7.414;2023-04-03T13:23:15;9.80;99.90
35804;DHT22;21924;51.934;7.414;2023-04-03T13:26:02;9.30;99.90
35804;DHT22;21924;51.934;7.414;2023-04-03T13:28:48;9.40;99.90
35804;DHT22;21924;51.934;7.414;2023-04-03T13:31:36;9.80;99.90
35804;DHT22;21924;51.934;7.414;2023-04-03T13:34:21;10.30;99.90
35804;DHT22;21924;51.934;7.414;2023-04-03T13:37:23;10.30;99.90
35804;DHT22;21924;51.934;7.414;2023-04-03T13:43:19;10.00;99.90
35804;DHT22;21924;51.934;7.414;2023-04-03T13:48:56;8.60;99.90
35804;DHT22;21924;51.934;7.414;2023-04-03T13:51:40;9.00;99.90
35804;DHT22;21924;51.934;7.414;2023-04-03T13:54:36;9.50;99.90
35804;DHT22;21924;51.934;7.414;2023-04-03T13:57:21;9.60;99.90
35804;DHT22;21924;51.934;7.414;2023-04-03T14:00:29;9.50;99.90
35804;DHT22;21924;51.934;7.414;2023-04-03T14:03:25;9.00;99.90
35804;DHT22;21924;51.934;7.414;2023-04-03T14:06:12;9.20;99.90
35804;DHT22;21924;51.934;7.414;2023-04-03T14:08:57;9.10;99.90
35804;DHT22;21924;51.934;7.414;2023-04-03T14:11:42;8.70;99.90
35804;DHT22;21924;51.934;7.414;2023-04-03T14:14:30;8.70;99.90
35804;DHT22;21924;51.934;7.414;2023-04-03T14:17:24;8.60;99.90
35804;DHT22;21924;51.934;7.414;2023-04-03T14:20:15;8.50;99.90
35804;DHT22;21924;51.934;7.414;2023-04-03T14:22:59;8.50;99.90
35804;DHT22;21924;51.934;7.414;2023-04-03T14:25:44;8.50;99.90
35804;DHT22;21924;51.934;7.414;2023-04-03T14:28:28;8.80;99.90
35804;DHT22;21924;51.934;7.414;2023-04-03T14:31:13;9.10;99.90
35804;DHT22;21924;51.934;7.414;2023-04-03T14:33:57;9.20;99.90
35804;DHT22;21924;51.934;7.414;2023-04-03T14:36:43;9.20;99.90
35804;DHT22;21924;51.934;7.414;2023-04-03T14:39:28;9.00;99.90
35804;DHT22;21924;51.934;7.414;2023-04-03T14:42:15;9.00;99.90
35804;DHT22;21924;51.934;7.414;2023-04-03T14:45:02;8.70;99.90
35804;DHT22;21924;51.934;7.414;2023-04-03T14:47:49;8.70;99.90
35804;DHT22;21924;51.934;7.414;2023-04-03T14:50:35;8.70;99.90
35804;DHT22;21924;51.934;7.414;2023-04-03T14:53:20;8.90;99.90
35804;DHT22;21924;51.934;7.414;2023-04-03T14:56:19;8.30;99.90
35804;DHT22;21924;51.934;7.414;2023-04-03T14:59:09;8.00;99.90
35804;DHT22;21924;51.934;7.414;2023-04-03T15:01:55;8.10;99.90
35804;DHT22;21924;51.934;7.414;2023-04-03T15:04:39;8.20;99.90
35804;DHT22;21924;51.934;7.414;2023-04-03T15:07:25;8.20;99.90
35804;DHT22;21924;51.934;7.414;2023-04-03T15:13:00;8.30;99.90
35804;DHT22;21924;51.934;7.414;2023-04-03T15:15:44;8.30;99.90
35804;DHT22;21924;51.934;7.414;2023-04-03T15:18:37;8.30;99.90
35804;DHT22;21924;51.934;7.414;2023-04-03T15:21:21;8.30;99.90
35804;DHT22;21924;51.934;7.414;2023-04-03T15:24:06;8.20;99.90
35804;DHT22;21924;51.934;7.414;2023-04-03T15:26:50;8.20;99.90
35804;DHT22;21924;51.934;7.414;2023-04-03T15:29:34;8.10;99.90
35804;DHT22;21924;51.934;7.414;2023-04-03T15:32:18;8.00;99.90
35804;DHT22;21924;51.934;7.414;2023-04-03T15:35:03;8.00;99.90
35804;DHT22;21924;51.934;7.414;2023-04-03T15:37:47;8.00;99.90
35804;DHT22;21924;51.934;7.414;2023-04-03T15:40:32;8.00;99.90
35804;DHT22;21924;51.934;7.414;2023-04-03T15:43:16;7.90;99.90
35804;DHT22;21924;51.934;7.414;2023-04-03T15:46:01;7.80;99.90
35804;DHT22;21924;51.934;7.414;2023-04-03T15:48:45;7.90;99.90
35804;DHT22;21924;51.934;7.414;2023-04-03T15:51:30;7.90;99.90
35804;DHT22;21924;51.934;7.414;2023-04-03T15:54:15;7.80;99.90
35804;DHT22;21924;51.934;7.414;2023-04-03T15:56:59;7.90;99.90
35804;DHT22;21924;51.934;7.414;2023-04-03T15:59:43;7.90;99.90
35804;DHT22;21924;51.934;7.414;2023-04-03T16:02:27;7.90;99.90
35804;DHT22;21924;51.934;7.414;2023-04-03T16:05:13;7.80;99.90
35804;DHT22;21924;51.934;7.414;2023-04-03T16:08:00;7.70;99.90
35804;DHT22;21924;51.934;7.414;2023-04-03T16:10:45;8.60;99.90
35804;DHT22;21924;51.934;7.414;2023-04-03T16:13:30;9.70;99.90
35804;DHT22;21924;51.934;7.414;2023-04-03T16:16:14;10.10;99.90
35804;DHT22;21924;51.934;7.414;2023-04-03T16:18:58;10.60;99.90
35804;DHT22;21924;51.934;7.414;2023-04-03T16:21:42;11.60;99.90
35804;DHT22;21924;51.934;7.414;2023-04-03T16:24:26;12.00;99.90
35804;DHT22;21924;51.934;7.414;2023-04-03T16:27:11;10.60;99.90
35804;DHT22;21924;51.934;7.414;2023-04-03T16:29:55;9.30;99.90
35804;DHT22;21924;51.934;7.414;2023-04-03T16:32:40;8.50;99.90
35804;DHT22;21924;51.934;7.414;2023-04-03T16:35:24;8.10;99.90
35804;DHT22;21924;51.934;7.414;2023-04-03T16:38:09;7.80;99.90
35804;DHT22;21924;51.934;7.414;2023-04-03T16:40:53;7.80;99.90
35804;DHT22;21924;51.934;7.414;2023-04-03T16:43:40;7.60;99.90
35804;DHT22;21924;51.934;7.414;2023-04-03T16:46:25;7.50;99.90
35804;DHT22;21924;51.934;7.414;2023-04-03T16:49:09;7.50;99.90
35804;DHT22;21924;51.934;7.414;2023-04-03T16:51:53;7.50;99.90
35804;DHT22;21924;51.934;7.414;2023-04-03T16:54:37;7.50;99.90
35804;DHT22;21924;51.934;7.414;2023-04-03T16:57:22;7.40;99.90
35804;DHT22;21924;51.934;7.414;2023-04-03T17:00:09;7.40;99.90
35804;DHT22;21924;51.934;7.414;2023-04-03T17:02:53;7.40;99.90
35804;DHT22;21924;51.934;7.414;2023-04-03T17:05:38;7.30;99.90
35804;DHT22;21924;51.934;7.414;2023-04-03T17:08:22;7.20;99.90
35804;DHT22;21924;51.934;7.414;2023-04-03T17:11:06;7.20;99.90
35804;DHT22;21924;51.934;7.414;2023-04-03T17:13:50;7.10;99.90
35804;DHT22;21924;51.934;7.414;2023-04-03T17:16:36;7.10;99.90
35804;DHT22;21924;51.934;7.414;2023-04-03T17:19:21;7.00;99.90
35804;DHT22;21924;51.934;7.414;2023-04-03T17:22:08;7.00;99.90
35804;DHT22;21924;51.934;7.414;2023-04-03T17:24:52;6.90;99.90
35804;DHT22;21924;51.934;7.414;2023-04-03T17:27:38;6.90;99.90
35804;DHT22;21924;51.934;7.414;2023-04-03T17:30:22;6.80;99.90
35804;DHT22;21924;51.934;7.414;2023-04-03T17:33:07;6.80;99.90
35804;DHT22;21924;51.934;7.414;2023-04-03T17:35:52;6.80;99.90
35804;DHT22;21924;51.934;7.414;2023-04-03T17:38:36;6.70;99.90
35804;DHT22;21924;51.934;7.414;2023-04-03T17:41:20;6.70;99.90
35804;DHT22;21924;51.934;7.414;2023-04-03T17:44:04;6.60;99.90
35804;DHT22;21924;51.934;7.414;2023-04-03T17:46:49;6.60;99.90
35804;DHT22;21924;51.934;7.414;2023-04-03T17:49:33;6.50;99.90
35804;DHT22;21924;51.934;7.414;2023-04-03T17:52:17;6.50;99.90
35804;DHT22;21924;51.934;7.414;2023-04-03T17:55:02;6.40;99.90
35804;DHT22;21924;51.934;7.414;2023-04-03T17:57:47;6.30;99.90
35804;DHT22;21924;51.934;7.414;2023-04-03T18:00:31;6.30;99.90
35804;DHT22;21924;51.934;7.414;2023-04-03T18:03:15;6.30;99.90
35804;DHT22;21924;51.934;7.414;2023-04-03T18:06:05;6.20;99.90
35804;DHT22;21924;51.934;7.414;2023-04-03T18:08:53;6.10;99.90
35804;DHT22;21924;51.934;7.414;2023-04-03T18:11:38;6.00;99.90
35804;DHT22;21924;51.934;7.414;2023-04-03T18:14:24;6.00;99.90
35804;DHT22;21924;51.934;7.414;2023-04-03T18:17:10;6.00;99.90
35804;DHT22;21924;51.934;7.414;2023-04-03T18:19:54;5.90;99.90
35804;DHT22;21924;51.934;7.414;2023-04-03T18:22:38;5.90;99.90
35804;DHT22;21924;51.934;7.414;2023-04-03T18:25:22;5.80;99.90
35804;DHT22;21924;51.934;7.414;2023-04-03T18:28:06;5.70;99.90
35804;DHT22;21924;51.934;7.414;2023-04-03T18:30:51;5.70;99.90
35804;DHT22;21924;51.934;7.414;2023-04-03T18:33:36;5.60;99.90
35804;DHT22;21924;51.934;7.414;2023-04-03T18:36:20;5.50;99.90
35804;DHT22;21924;51.934;7.414;2023-04-03T18:39:04;5.40;99.90
35804;DHT22;21924;51.934;7.414;2023-04-03T18:41:49;5.40;99.90
35804;DHT22;21924;51.934;7.414;2023-04-03T18:44:34;5.30;99.90
35804;DHT22;21924;51.934;7.414;2023-04-03T18:47:19;5.30;99.90
35804;DHT22;21924;51.934;7.414;2023-04-03T18:50:05;5.30;99.90